Nautilus — ISPC — position and weather

sailwx.info

Track history (hours):
 
Tides and Currents Weather Stations Pressure Air Temp Water Temp Dewpoint Dewpoint Depression Visibility Wind Speed Wind Dir Waves Ship Positions

Nautilus

Last reported at 2016-Aug-23 20:31 UTC. Time now 2016-Aug-23 21:05 UTC.
Position N 42°49' E 010°12'.

Length 25 m.

Type: Ship. MMSI: 247205700.

Date/timePositionNaut miles runAvg speedWind from/ knotsBaromVisibWave heightAir tempDewpointWater temp
2016-Aug-23 20:31N 42°49' E 010°12'0 0.0
2016-Aug-23 19:32N 42°49' E 010°12'0 0.0
2016-Aug-23 18:33N 42°49' E 010°12'0 0.0
2016-Aug-23 16:32N 42°49' E 010°12'0 0.0
2016-Aug-23 15:32N 42°49' E 010°12'0 0.0
2016-Aug-23 14:33N 42°49' E 010°12'0 0.0
2016-Aug-23 13:34N 42°49' E 010°12'0 0.0
2016-Aug-23 12:33N 42°49' E 010°12'0 0.0
2016-Aug-23 11:33N 42°49' E 010°12'0 0.0
2016-Aug-23 10:33N 42°49' E 010°12'0 0.0
2016-Aug-23 09:34N 42°49' E 010°12'0 0.0
2016-Aug-23 08:33N 42°49' E 010°12'0 0.0
2016-Aug-23 07:33N 42°49' E 010°12'0 0.0
2016-Aug-23 06:33N 42°49' E 010°12'0 0.0
2016-Aug-23 05:33N 42°49' E 010°12'0 0.0
2016-Aug-23 04:33N 42°49' E 010°12'0 0.0
2016-Aug-23 03:33N 42°49' E 010°12'0 0.0
2016-Aug-23 02:33N 42°49' E 010°12'0 0.0
2016-Aug-23 01:33N 42°49' E 010°12'0 0.0
2016-Aug-23 00:33N 42°49' E 010°12'0 0.0
2016-Aug-22 23:33N 42°49' E 010°12'0 0.0
2016-Aug-22 22:33N 42°49' E 010°12'0 0.0
2016-Aug-22 21:34N 42°49' E 010°12'0 0.0
2016-Aug-22 20:34N 42°49' E 010°12'0 0.0
2016-Aug-22 19:32N 42°49' E 010°12'0 0.0
2016-Aug-22 18:33N 42°49' E 010°12'0 0.0
2016-Aug-22 17:32N 42°49' E 010°12'0 0.0
2016-Aug-22 16:34N 42°49' E 010°12'0 0.0
2016-Aug-22 15:34N 42°49' E 010°12'0 0.0
2016-Aug-22 14:33N 42°49' E 010°12'0 0.1
2016-Aug-22 13:34N 42°48' E 010°12'0 0.1
2016-Aug-22 12:30N 42°48' E 010°12'0 0.0
2016-Aug-22 11:33N 42°48' E 010°12'1 0.2
2016-Aug-22 07:14N 42°49' E 010°13'1 1.3
2016-Aug-22 06:34N 42°49' E 010°12'0 0.0
2016-Aug-22 05:34N 42°49' E 010°12'0 0.0
2016-Aug-22 04:33N 42°49' E 010°12'0 0.0
2016-Aug-22 03:34N 42°49' E 010°12'0 0.0
2016-Aug-22 02:34N 42°49' E 010°12'0 0.0
2016-Aug-22 01:33N 42°49' E 010°12'0 0.0
2016-Aug-22 00:33N 42°49' E 010°12'0 0.0
2016-Aug-21 23:34N 42°49' E 010°12'0 0.0
2016-Aug-21 22:34N 42°49' E 010°12'0 0.0
2016-Aug-21 21:33N 42°49' E 010°12'0 0.0
2016-Aug-21 20:32N 42°49' E 010°12'0 0.0
2016-Aug-21 19:34N 42°49' E 010°12'0 0.0
2016-Aug-21 18:33N 42°49' E 010°12'0 0.0
2016-Aug-21 17:16N 42°49' E 010°12'0 0.0
2016-Aug-21 16:22N 42°49' E 010°12'0 0.1
2016-Aug-21 13:29N 42°48' E 010°12'0 0.0
2016-Aug-21 12:32N 42°48' E 010°12'1 0.2
2016-Aug-21 07:09N 42°49' E 010°13'1 1.5
2016-Aug-21 06:34N 42°49' E 010°12'0 0.0
2016-Aug-21 05:33N 42°49' E 010°12'0 0.0
2016-Aug-21 04:34N 42°49' E 010°12'0 0.0
2016-Aug-21 03:33N 42°49' E 010°12'0 0.0
2016-Aug-21 02:34N 42°49' E 010°12'0 0.0
2016-Aug-21 01:34N 42°49' E 010°12'0 0.0
2016-Aug-21 00:32N 42°49' E 010°12'0 0.0
2016-Aug-20 23:34N 42°49' E 010°12'0 0.0
2016-Aug-20 22:34N 42°49' E 010°12'0 0.0
2016-Aug-20 21:33N 42°49' E 010°12'0 0.0
2016-Aug-20 20:33N 42°49' E 010°12'0 0.0
2016-Aug-20 19:33N 42°49' E 010°12'0 0.0
2016-Aug-20 18:33N 42°49' E 010°12'0 0.0
2016-Aug-20 17:33N 42°49' E 010°12'0 0.0
2016-Aug-20 16:34N 42°49' E 010°12'3 3.0
2016-Aug-20 15:31N 42°49' E 010°08'3 2.6
2016-Aug-20 14:28N 42°46' E 010°06'5 1.6
2016-Aug-20 11:29N 42°48' E 010°12'6 5.8
2016-Aug-20 10:31N 42°49' E 010°19'2 1.6
2016-Aug-20 09:33N 42°50' E 010°18'2 1.5
2016-Aug-20 08:31N 42°49' E 010°19'3 2.8
2016-Aug-20 07:31N 42°50' E 010°16'3 3.4
2016-Aug-20 06:33N 42°49' E 010°12'0 0.0
2016-Aug-20 05:33N 42°49' E 010°12'0 0.0
2016-Aug-20 04:34N 42°49' E 010°12'0 0.0
2016-Aug-20 03:34N 42°49' E 010°12'0 0.0
2016-Aug-20 02:34N 42°49' E 010°12'0 0.0
2016-Aug-20 01:33N 42°49' E 010°12'0 0.0
2016-Aug-20 00:33N 42°49' E 010°12'0 0.0
2016-Aug-19 23:33N 42°49' E 010°12'0 0.0
2016-Aug-19 22:33N 42°49' E 010°12'0 0.0
2016-Aug-19 21:32N 42°49' E 010°12'0 0.0
2016-Aug-19 20:33N 42°49' E 010°12'0 0.0
2016-Aug-19 19:32N 42°49' E 010°12'0 0.0
2016-Aug-19 18:33N 42°49' E 010°12'0 0.1
2016-Aug-19 17:31N 42°48' E 010°12'1 0.7
2016-Aug-19 15:19N 42°49' E 010°10'0 0.5
2016-Aug-19 14:32N 42°49' E 010°10'2 0.9
2016-Aug-19 12:32N 42°48' E 010°12'0 0.3
2016-Aug-19 11:33N 42°49' E 010°12'0 0.0
2016-Aug-19 06:33N 42°49' E 010°12'0 0.0
2016-Aug-19 05:33N 42°49' E 010°12'0 0.0
2016-Aug-19 04:33N 42°49' E 010°12'0 0.0
2016-Aug-19 03:33N 42°49' E 010°12'0 0.0
2016-Aug-19 02:33N 42°49' E 010°12'0 0.0
2016-Aug-19 01:34N 42°49' E 010°12'0 0.0
2016-Aug-19 00:33N 42°49' E 010°12'0 0.0
2016-Aug-18 23:33N 42°49' E 010°12'0 0.0
2016-Aug-18 22:33N 42°49' E 010°12'0 0.0
2016-Aug-18 21:33N 42°49' E 010°12'0 0.0
2016-Aug-18 20:34N 42°49' E 010°12'0 0.0
2016-Aug-18 19:34N 42°49' E 010°12'0 0.0
2016-Aug-18 18:34N 42°49' E 010°12'1 0.6
2016-Aug-18 17:31N 42°49' E 010°11'4 3.5
2016-Aug-18 16:14N 42°46' E 010°06'4 6.1
2016-Aug-18 15:31N 42°49' E 010°11'1 0.3
2016-Aug-18 12:33N 42°48' E 010°12'0 0.1
2016-Aug-18 05:33N 42°49' E 010°12'0 0.4
2016-Aug-18 04:33N 42°49' E 010°12'0 0.0
2016-Aug-18 03:34N 42°49' E 010°12'0 0.0
2016-Aug-18 02:33N 42°49' E 010°12'0 0.0
2016-Aug-18 01:34N 42°49' E 010°12'0 0.0
2016-Aug-18 00:34N 42°49' E 010°12'0 0.0
2016-Aug-17 23:34N 42°49' E 010°12'0 0.0
2016-Aug-17 22:34N 42°49' E 010°12'0 0.0
2016-Aug-17 21:33N 42°49' E 010°12'0 0.0
2016-Aug-17 20:33N 42°49' E 010°12'0 0.0
2016-Aug-17 19:34N 42°49' E 010°12'0 0.0
2016-Aug-17 18:33N 42°49' E 010°12'0 0.1
2016-Aug-17 17:32N 42°48' E 010°12'0 0.1
2016-Aug-17 15:22N 42°49' E 010°12'0 0.1
2016-Aug-17 12:33N 42°48' E 010°12'1 0.3
2016-Aug-17 07:07N 42°49' E 010°14'1 2.4
2016-Aug-17 06:33N 42°49' E 010°12'0 0.0
2016-Aug-17 05:32N 42°49' E 010°12'0 0.0
2016-Aug-17 04:34N 42°49' E 010°12'0 0.0
2016-Aug-17 03:33N 42°49' E 010°12'0 0.0
2016-Aug-17 02:33N 42°49' E 010°12'0 0.0
2016-Aug-17 01:32N 42°49' E 010°12'0 0.0
2016-Aug-17 00:33N 42°49' E 010°12'0 0.0
2016-Aug-16 23:33N 42°49' E 010°12'0 0.0
2016-Aug-16 22:34N 42°49' E 010°12'0 0.0
2016-Aug-16 21:33N 42°49' E 010°12'0 0.0
2016-Aug-16 20:29N 42°49' E 010°12'0 0.0
2016-Aug-16 19:32N 42°49' E 010°12'0 0.0
2016-Aug-16 18:28N 42°49' E 010°12'4 4.9
2016-Aug-16 17:33N 42°50' E 010°18'3 2.5
2016-Aug-16 16:32N 42°48' E 010°20'0 0.0
2016-Aug-16 14:33N 42°48' E 010°20'0 0.0
2016-Aug-16 13:31N 42°48' E 010°20'0 0.1
2016-Aug-16 12:33N 42°48' E 010°20'0 0.1
2016-Aug-16 11:34N 42°48' E 010°20'1 0.6
2016-Aug-16 10:33N 42°49' E 010°20'0 0.2
2016-Aug-16 09:33N 42°49' E 010°20'0 0.0
2016-Aug-16 08:32N 42°49' E 010°20'0 0.0
2016-Aug-16 07:27N 42°49' E 010°20'6 2.0
2016-Aug-16 04:33N 42°49' E 010°12'0 0.0
2016-Aug-16 03:33N 42°49' E 010°12'0 0.0
2016-Aug-16 00:11N 42°49' E 010°12'0 0.0
2016-Aug-15 23:32N 42°49' E 010°12'0 0.0
2016-Aug-15 22:33N 42°49' E 010°12'0 0.0
2016-Aug-15 21:10N 42°49' E 010°12'0 0.0
2016-Aug-15 20:33N 42°49' E 010°12'0 0.0
2016-Aug-15 19:19N 42°49' E 010°12'0 0.0
2016-Aug-15 18:27N 42°49' E 010°12'0 0.0
2016-Aug-15 17:12N 42°49' E 010°12'0 0.0
2016-Aug-15 16:25N 42°49' E 010°12'2 2.9
2016-Aug-15 15:33N 42°49' E 010°08'3 2.5
2016-Aug-15 14:21N 42°46' E 010°06'5 5.3
2016-Aug-15 13:28N 42°48' E 010°12'0 0.0
2016-Aug-15 12:30N 42°48' E 010°12'0 0.1
2016-Aug-15 11:33N 42°48' E 010°12'4 2.1
2016-Aug-15 09:33N 42°50' E 010°18'2 1.1
2016-Aug-15 08:06N 42°49' E 010°19'3 5.3
2016-Aug-15 07:33N 42°50' E 010°16'3 3.2
2016-Aug-15 06:33N 42°49' E 010°12'0 0.0
2016-Aug-15 04:33N 42°49' E 010°12'0 0.0
2016-Aug-15 03:33N 42°49' E 010°12'0 0.0
2016-Aug-15 02:32N 42°49' E 010°12'0 0.0
2016-Aug-15 01:08N 42°49' E 010°12'0 0.0
2016-Aug-15 00:18N 42°49' E 010°12'0 0.0
2016-Aug-14 23:20N 42°49' E 010°12'0 0.0
2016-Aug-14 22:33N 42°49' E 010°12'0 0.0
2016-Aug-14 21:23N 42°49' E 010°12'0 0.0
2016-Aug-14 20:33N 42°49' E 010°12'0 0.0
2016-Aug-14 19:33N 42°49' E 010°12'0 0.0
2016-Aug-14 18:32N 42°49' E 010°12'0 0.0
2016-Aug-14 16:09N 42°49' E 010°12'2 2.8
2016-Aug-14 15:32N 42°49' E 010°09'3 2.0
2016-Aug-14 14:09N 42°47' E 010°06'4 6.7
2016-Aug-14 13:30N 42°48' E 010°12'0 0.0
2016-Aug-14 12:31N 42°48' E 010°12'0 0.0
2016-Aug-14 11:32N 42°48' E 010°12'6 5.0
2016-Aug-14 10:25N 42°49' E 010°19'3 0.9
2016-Aug-14 07:28N 42°50' E 010°16'4 3.8
2016-Aug-14 06:32N 42°49' E 010°12'0 0.0
2016-Aug-14 03:31N 42°49' E 010°12'0 0.0
2016-Aug-14 02:33N 42°49' E 010°12'0 0.0
2016-Aug-14 01:33N 42°49' E 010°12'0 0.0
2016-Aug-14 00:34N 42°49' E 010°12'0 0.0
2016-Aug-13 23:33N 42°49' E 010°12'0 0.0
2016-Aug-13 22:34N 42°49' E 010°12'0 0.0
2016-Aug-13 21:07N 42°49' E 010°12'  
Track history (hours):
 
Tides and Currents Weather Stations Pressure Air Temp Water Temp Dewpoint Dewpoint Depression Visibility Wind Speed Wind Dir Waves Ship Positions

Nautilus

Last reported at 2016-Aug-23 20:31 UTC. Time now 2016-Aug-23 21:05 UTC.
Position N 42°49' E 010°12'.

Length 25 m.

Type: Ship. MMSI: 247205700.

Date/timePositionNaut miles runAvg speedWind from/ knotsBaromVisibWave heightAir tempDewpointWater temp
2016-Aug-23 20:31N 42°49' E 010°12'0 0.0
2016-Aug-23 19:32N 42°49' E 010°12'0 0.0
2016-Aug-23 18:33N 42°49' E 010°12'0 0.0
2016-Aug-23 16:32N 42°49' E 010°12'0 0.0
2016-Aug-23 15:32N 42°49' E 010°12'0 0.0
2016-Aug-23 14:33N 42°49' E 010°12'0 0.0
2016-Aug-23 13:34N 42°49' E 010°12'0 0.0
2016-Aug-23 12:33N 42°49' E 010°12'0 0.0
2016-Aug-23 11:33N 42°49' E 010°12'0 0.0
2016-Aug-23 10:33N 42°49' E 010°12'0 0.0
2016-Aug-23 09:34N 42°49' E 010°12'0 0.0
2016-Aug-23 08:33N 42°49' E 010°12'0 0.0
2016-Aug-23 07:33N 42°49' E 010°12'0 0.0
2016-Aug-23 06:33N 42°49' E 010°12'0 0.0
2016-Aug-23 05:33N 42°49' E 010°12'0 0.0
2016-Aug-23 04:33N 42°49' E 010°12'0 0.0
2016-Aug-23 03:33N 42°49' E 010°12'0 0.0
2016-Aug-23 02:33N 42°49' E 010°12'0 0.0
2016-Aug-23 01:33N 42°49' E 010°12'0 0.0
2016-Aug-23 00:33N 42°49' E 010°12'0 0.0
2016-Aug-22 23:33N 42°49' E 010°12'0 0.0
2016-Aug-22 22:33N 42°49' E 010°12'0 0.0
2016-Aug-22 21:34N 42°49' E 010°12'0 0.0
2016-Aug-22 20:34N 42°49' E 010°12'0 0.0
2016-Aug-22 19:32N 42°49' E 010°12'0 0.0
2016-Aug-22 18:33N 42°49' E 010°12'0 0.0
2016-Aug-22 17:32N 42°49' E 010°12'0 0.0
2016-Aug-22 16:34N 42°49' E 010°12'0 0.0
2016-Aug-22 15:34N 42°49' E 010°12'0 0.0
2016-Aug-22 14:33N 42°49' E 010°12'0 0.1
2016-Aug-22 13:34N 42°48' E 010°12'0 0.1
2016-Aug-22 12:30N 42°48' E 010°12'0 0.0
2016-Aug-22 11:33N 42°48' E 010°12'1 0.2
2016-Aug-22 07:14N 42°49' E 010°13'1 1.3
2016-Aug-22 06:34N 42°49' E 010°12'0 0.0
2016-Aug-22 05:34N 42°49' E 010°12'0 0.0
2016-Aug-22 04:33N 42°49' E 010°12'0 0.0
2016-Aug-22 03:34N 42°49' E 010°12'0 0.0
2016-Aug-22 02:34N 42°49' E 010°12'0 0.0
2016-Aug-22 01:33N 42°49' E 010°12'0 0.0
2016-Aug-22 00:33N 42°49' E 010°12'0 0.0
2016-Aug-21 23:34N 42°49' E 010°12'0 0.0
2016-Aug-21 22:34N 42°49' E 010°12'0 0.0
2016-Aug-21 21:33N 42°49' E 010°12'0 0.0
2016-Aug-21 20:32N 42°49' E 010°12'0 0.0
2016-Aug-21 19:34N 42°49' E 010°12'0 0.0
2016-Aug-21 18:33N 42°49' E 010°12'0 0.0
2016-Aug-21 17:16N 42°49' E 010°12'0 0.0
2016-Aug-21 16:22N 42°49' E 010°12'0 0.1
2016-Aug-21 13:29N 42°48' E 010°12'0 0.0
2016-Aug-21 12:32N 42°48' E 010°12'1 0.2
2016-Aug-21 07:09N 42°49' E 010°13'1 1.5
2016-Aug-21 06:34N 42°49' E 010°12'0 0.0
2016-Aug-21 05:33N 42°49' E 010°12'0 0.0
2016-Aug-21 04:34N 42°49' E 010°12'0 0.0
2016-Aug-21 03:33N 42°49' E 010°12'0 0.0
2016-Aug-21 02:34N 42°49' E 010°12'0 0.0
2016-Aug-21 01:34N 42°49' E 010°12'0 0.0
2016-Aug-21 00:32N 42°49' E 010°12'0 0.0
2016-Aug-20 23:34N 42°49' E 010°12'0 0.0
2016-Aug-20 22:34N 42°49' E 010°12'0 0.0
2016-Aug-20 21:33N 42°49' E 010°12'0 0.0
2016-Aug-20 20:33N 42°49' E 010°12'0 0.0
2016-Aug-20 19:33N 42°49' E 010°12'0 0.0
2016-Aug-20 18:33N 42°49' E 010°12'0 0.0
2016-Aug-20 17:33N 42°49' E 010°12'0 0.0
2016-Aug-20 16:34N 42°49' E 010°12'3 3.0
2016-Aug-20 15:31N 42°49' E 010°08'3 2.6
2016-Aug-20 14:28N 42°46' E 010°06'5 1.6
2016-Aug-20 11:29N 42°48' E 010°12'6 5.8
2016-Aug-20 10:31N 42°49' E 010°19'2 1.6
2016-Aug-20 09:33N 42°50' E 010°18'2 1.5
2016-Aug-20 08:31N 42°49' E 010°19'3 2.8
2016-Aug-20 07:31N 42°50' E 010°16'3 3.4
2016-Aug-20 06:33N 42°49' E 010°12'0 0.0
2016-Aug-20 05:33N 42°49' E 010°12'0 0.0
2016-Aug-20 04:34N 42°49' E 010°12'0 0.0
2016-Aug-20 03:34N 42°49' E 010°12'0 0.0
2016-Aug-20 02:34N 42°49' E 010°12'0 0.0
2016-Aug-20 01:33N 42°49' E 010°12'0 0.0
2016-Aug-20 00:33N 42°49' E 010°12'0 0.0
2016-Aug-19 23:33N 42°49' E 010°12'0 0.0
2016-Aug-19 22:33N 42°49' E 010°12'0 0.0
2016-Aug-19 21:32N 42°49' E 010°12'0 0.0
2016-Aug-19 20:33N 42°49' E 010°12'0 0.0
2016-Aug-19 19:32N 42°49' E 010°12'0 0.0
2016-Aug-19 18:33N 42°49' E 010°12'0 0.1
2016-Aug-19 17:31N 42°48' E 010°12'1 0.7
2016-Aug-19 15:19N 42°49' E 010°10'0 0.5
2016-Aug-19 14:32N 42°49' E 010°10'2 0.9
2016-Aug-19 12:32N 42°48' E 010°12'0 0.3
2016-Aug-19 11:33N 42°49' E 010°12'0 0.0
2016-Aug-19 06:33N 42°49' E 010°12'0 0.0
2016-Aug-19 05:33N 42°49' E 010°12'0 0.0
2016-Aug-19 04:33N 42°49' E 010°12'0 0.0
2016-Aug-19 03:33N 42°49' E 010°12'0 0.0
2016-Aug-19 02:33N 42°49' E 010°12'0 0.0
2016-Aug-19 01:34N 42°49' E 010°12'0 0.0
2016-Aug-19 00:33N 42°49' E 010°12'0 0.0
2016-Aug-18 23:33N 42°49' E 010°12'0 0.0
2016-Aug-18 22:33N 42°49' E 010°12'0 0.0
2016-Aug-18 21:33N 42°49' E 010°12'0 0.0
2016-Aug-18 20:34N 42°49' E 010°12'0 0.0
2016-Aug-18 19:34N 42°49' E 010°12'0 0.0
2016-Aug-18 18:34N 42°49' E 010°12'1 0.6
2016-Aug-18 17:31N 42°49' E 010°11'4 3.5
2016-Aug-18 16:14N 42°46' E 010°06'4 6.1
2016-Aug-18 15:31N 42°49' E 010°11'1 0.3
2016-Aug-18 12:33N 42°48' E 010°12'0 0.1
2016-Aug-18 05:33N 42°49' E 010°12'0 0.4
2016-Aug-18 04:33N 42°49' E 010°12'0 0.0
2016-Aug-18 03:34N 42°49' E 010°12'0 0.0
2016-Aug-18 02:33N 42°49' E 010°12'0 0.0
2016-Aug-18 01:34N 42°49' E 010°12'0 0.0
2016-Aug-18 00:34N 42°49' E 010°12'0 0.0
2016-Aug-17 23:34N 42°49' E 010°12'0 0.0
2016-Aug-17 22:34N 42°49' E 010°12'0 0.0
2016-Aug-17 21:33N 42°49' E 010°12'0 0.0
2016-Aug-17 20:33N 42°49' E 010°12'0 0.0
2016-Aug-17 19:34N 42°49' E 010°12'0 0.0
2016-Aug-17 18:33N 42°49' E 010°12'0 0.1
2016-Aug-17 17:32N 42°48' E 010°12'0 0.1
2016-Aug-17 15:22N 42°49' E 010°12'0 0.1
2016-Aug-17 12:33N 42°48' E 010°12'1 0.3
2016-Aug-17 07:07N 42°49' E 010°14'1 2.4
2016-Aug-17 06:33N 42°49' E 010°12'0 0.0
2016-Aug-17 05:32N 42°49' E 010°12'0 0.0
2016-Aug-17 04:34N 42°49' E 010°12'0 0.0
2016-Aug-17 03:33N 42°49' E 010°12'0 0.0
2016-Aug-17 02:33N 42°49' E 010°12'0 0.0
2016-Aug-17 01:32N 42°49' E 010°12'0 0.0
2016-Aug-17 00:33N 42°49' E 010°12'0 0.0
2016-Aug-16 23:33N 42°49' E 010°12'0 0.0
2016-Aug-16 22:34N 42°49' E 010°12'0 0.0
2016-Aug-16 21:33N 42°49' E 010°12'0 0.0
2016-Aug-16 20:29N 42°49' E 010°12'0 0.0
2016-Aug-16 19:32N 42°49' E 010°12'0 0.0
2016-Aug-16 18:28N 42°49' E 010°12'4 4.9
2016-Aug-16 17:33N 42°50' E 010°18'3 2.5
2016-Aug-16 16:32N 42°48' E 010°20'0 0.0
2016-Aug-16 14:33N 42°48' E 010°20'0 0.0
2016-Aug-16 13:31N 42°48' E 010°20'0 0.1
2016-Aug-16 12:33N 42°48' E 010°20'0 0.1
2016-Aug-16 11:34N 42°48' E 010°20'1 0.6
2016-Aug-16 10:33N 42°49' E 010°20'0 0.2
2016-Aug-16 09:33N 42°49' E 010°20'0 0.0
2016-Aug-16 08:32N 42°49' E 010°20'0 0.0
2016-Aug-16 07:27N 42°49' E 010°20'6 2.0
2016-Aug-16 04:33N 42°49' E 010°12'0 0.0
2016-Aug-16 03:33N 42°49' E 010°12'0 0.0
2016-Aug-16 00:11N 42°49' E 010°12'0 0.0
2016-Aug-15 23:32N 42°49' E 010°12'0 0.0
2016-Aug-15 22:33N 42°49' E 010°12'0 0.0
2016-Aug-15 21:10N 42°49' E 010°12'0 0.0
2016-Aug-15 20:33N 42°49' E 010°12'0 0.0
2016-Aug-15 19:19N 42°49' E 010°12'0 0.0
2016-Aug-15 18:27N 42°49' E 010°12'0 0.0
2016-Aug-15 17:12N 42°49' E 010°12'0 0.0
2016-Aug-15 16:25N 42°49' E 010°12'2 2.9
2016-Aug-15 15:33N 42°49' E 010°08'3 2.5
2016-Aug-15 14:21N 42°46' E 010°06'5 5.3
2016-Aug-15 13:28N 42°48' E 010°12'0 0.0
2016-Aug-15 12:30N 42°48' E 010°12'0 0.1
2016-Aug-15 11:33N 42°48' E 010°12'4 2.1
2016-Aug-15 09:33N 42°50' E 010°18'2 1.1
2016-Aug-15 08:06N 42°49' E 010°19'3 5.3
2016-Aug-15 07:33N 42°50' E 010°16'3 3.2
2016-Aug-15 06:33N 42°49' E 010°12'0 0.0
2016-Aug-15 04:33N 42°49' E 010°12'0 0.0
2016-Aug-15 03:33N 42°49' E 010°12'0 0.0
2016-Aug-15 02:32N 42°49' E 010°12'0 0.0
2016-Aug-15 01:08N 42°49' E 010°12'0 0.0
2016-Aug-15 00:18N 42°49' E 010°12'0 0.0
2016-Aug-14 23:20N 42°49' E 010°12'0 0.0
2016-Aug-14 22:33N 42°49' E 010°12'0 0.0
2016-Aug-14 21:23N 42°49' E 010°12'0 0.0
2016-Aug-14 20:33N 42°49' E 010°12'0 0.0
2016-Aug-14 19:33N 42°49' E 010°12'0 0.0
2016-Aug-14 18:32N 42°49' E 010°12'0 0.0
2016-Aug-14 16:09N 42°49' E 010°12'2 2.8
2016-Aug-14 15:32N 42°49' E 010°09'3 2.0
2016-Aug-14 14:09N 42°47' E 010°06'4 6.7
2016-Aug-14 13:30N 42°48' E 010°12'0 0.0
2016-Aug-14 12:31N 42°48' E 010°12'0 0.0
2016-Aug-14 11:32N 42°48' E 010°12'6 5.0
2016-Aug-14 10:25N 42°49' E 010°19'3 0.9
2016-Aug-14 07:28N 42°50' E 010°16'4 3.8
2016-Aug-14 06:32N 42°49' E 010°12'0 0.0
2016-Aug-14 03:31N 42°49' E 010°12'0 0.0
2016-Aug-14 02:33N 42°49' E 010°12'0 0.0
2016-Aug-14 01:33N 42°49' E 010°12'0 0.0
2016-Aug-14 00:34N 42°49' E 010°12'0 0.0
2016-Aug-13 23:33N 42°49' E 010°12'0 0.0
2016-Aug-13 22:34N 42°49' E 010°12'0 0.0
2016-Aug-13 21:07N 42°49' E 010°12'  

Dump ship's entire track history